sensor_id;sensor_type;location;lat;lon;timestamp;temperature;humidity
34135;DHT22;20410;55.578;12.968;2023-02-28T00:00:13;5.80;1.00
34135;DHT22;20410;55.578;12.968;2023-02-28T00:02:41;5.80;1.00
34135;DHT22;20410;55.578;12.968;2023-02-28T00:05:08;5.90;1.00
34135;DHT22;20410;55.578;12.968;2023-02-28T00:07:35;5.80;1.00
34135;DHT22;20410;55.578;12.968;2023-02-28T00:10:01;5.90;1.00
34135;DHT22;20410;55.578;12.968;2023-02-28T00:12:27;5.90;1.00
34135;DHT22;20410;55.578;12.968;2023-02-28T00:14:53;5.90;1.00
34135;DHT22;20410;55.578;12.968;2023-02-28T00:17:19;5.80;1.00
34135;DHT22;20410;55.578;12.968;2023-02-28T00:19:47;5.80;1.00
34135;DHT22;20410;55.578;12.968;2023-02-28T00:22:14;5.80;1.00
34135;DHT22;20410;55.578;12.968;2023-02-28T00:24:39;5.80;1.00
34135;DHT22;20410;55.578;12.968;2023-02-28T00:27:05;5.80;1.00
34135;DHT22;20410;55.578;12.968;2023-02-28T00:29:30;5.80;1.00
34135;DHT22;20410;55.578;12.968;2023-02-28T00:31:56;5.90;1.00
34135;DHT22;20410;55.578;12.968;2023-02-28T00:34:22;5.90;1.00
34135;DHT22;20410;55.578;12.968;2023-02-28T00:36:47;5.80;1.00
34135;DHT22;20410;55.578;12.968;2023-02-28T00:39:16;5.70;1.00
34135;DHT22;20410;55.578;12.968;2023-02-28T00:41:42;5.60;1.00
34135;DHT22;20410;55.578;12.968;2023-02-28T00:44:07;5.60;1.00
34135;DHT22;20410;55.578;12.968;2023-02-28T00:46:33;5.70;1.00
34135;DHT22;20410;55.578;12.968;2023-02-28T00:48:58;5.70;1.00
34135;DHT22;20410;55.578;12.968;2023-02-28T00:51:24;5.70;1.00
34135;DHT22;20410;55.578;12.968;2023-02-28T00:53:49;5.80;1.00
34135;DHT22;20410;55.578;12.968;2023-02-28T00:56:15;5.80;1.00
34135;DHT22;20410;55.578;12.968;2023-02-28T00:58:41;5.70;1.00
34135;DHT22;20410;55.578;12.968;2023-02-28T01:01:06;5.60;1.00
34135;DHT22;20410;55.578;12.968;2023-02-28T01:03:32;5.50;1.00
34135;DHT22;20410;55.578;12.968;2023-02-28T01:05:58;5.50;1.00
34135;DHT22;20410;55.578;12.968;2023-02-28T01:08:23;5.40;1.00
34135;DHT22;20410;55.578;12.968;2023-02-28T01:10:49;5.40;1.00
34135;DHT22;20410;55.578;12.968;2023-02-28T01:13:15;5.40;1.00
34135;DHT22;20410;55.578;12.968;2023-02-28T01:15:45;5.40;1.00
34135;DHT22;20410;55.578;12.968;2023-02-28T01:18:13;5.40;1.00
34135;DHT22;20410;55.578;12.968;2023-02-28T01:20:39;5.30;1.00
34135;DHT22;20410;55.578;12.968;2023-02-28T01:23:05;5.30;1.00
34135;DHT22;20410;55.578;12.968;2023-02-28T01:25:30;5.10;1.00
34135;DHT22;20410;55.578;12.968;2023-02-28T01:27:56;5.10;1.00
34135;DHT22;20410;55.578;12.968;2023-02-28T01:30:21;5.00;1.00
34135;DHT22;20410;55.578;12.968;2023-02-28T01:32:47;4.90;1.00
34135;DHT22;20410;55.578;12.968;2023-02-28T01:35:13;4.80;1.00
34135;DHT22;20410;55.578;12.968;2023-02-28T01:37:38;4.60;1.00
34135;DHT22;20410;55.578;12.968;2023-02-28T01:40:04;4.60;1.00
34135;DHT22;20410;55.578;12.968;2023-02-28T01:42:30;4.60;1.00
34135;DHT22;20410;55.578;12.968;2023-02-28T01:47:35;4.50;1.00
34135;DHT22;20410;55.578;12.968;2023-02-28T01:50:05;4.40;1.00
34135;DHT22;20410;55.578;12.968;2023-02-28T01:52:32;4.40;1.00
34135;DHT22;20410;55.578;12.968;2023-02-28T01:55:01;4.30;1.00
34135;DHT22;20410;55.578;12.968;2023-02-28T01:57:32;4.00;1.00
34135;DHT22;20410;55.578;12.968;2023-02-28T02:02:35;3.90;1.00
34135;DHT22;20410;55.578;12.968;2023-02-28T02:05:15;3.80;1.00
34135;DHT22;20410;55.578;12.968;2023-02-28T02:07:43;3.80;1.00
34135;DHT22;20410;55.578;12.968;2023-02-28T02:10:14;3.80;1.00
34135;DHT22;20410;55.578;12.968;2023-02-28T02:15:34;3.70;1.00
34135;DHT22;20410;55.578;12.968;2023-02-28T02:24:11;3.50;1.00
34135;DHT22;20410;55.578;12.968;2023-02-28T02:35:31;3.30;1.00
34135;DHT22;20410;55.578;12.968;2023-02-28T02:41:28;3.20;1.00
34135;DHT22;20410;55.578;12.968;2023-02-28T02:46:44;3.00;1.00
34135;DHT22;20410;55.578;12.968;2023-02-28T02:49:17;3.00;1.00
34135;DHT22;20410;55.578;12.968;2023-02-28T02:51:46;3.00;1.00
34135;DHT22;20410;55.578;12.968;2023-02-28T02:54:35;3.00;1.00
34135;DHT22;20410;55.578;12.968;2023-02-28T02:57:10;3.00;1.00
34135;DHT22;20410;55.578;12.968;2023-02-28T02:59:39;3.00;1.00
34135;DHT22;20410;55.578;12.968;2023-02-28T03:02:07;2.90;1.00
34135;DHT22;20410;55.578;12.968;2023-02-28T03:04:40;2.90;1.00
34135;DHT22;20410;55.578;12.968;2023-02-28T03:07:07;2.80;1.00
34135;DHT22;20410;55.578;12.968;2023-02-28T03:09:33;2.80;1.00
34135;DHT22;20410;55.578;12.968;2023-02-28T03:12:01;2.90;1.00
34135;DHT22;20410;55.578;12.968;2023-02-28T03:25:30;3.10;1.00
34135;DHT22;20410;55.578;12.968;2023-02-28T03:28:41;3.10;1.00
34135;DHT22;20410;55.578;12.968;2023-02-28T03:33:23;3.00;1.00
34135;DHT22;20410;55.578;12.968;2023-02-28T03:35:54;3.00;1.00
34135;DHT22;20410;55.578;12.968;2023-02-28T03:40:50;3.00;1.00
34135;DHT22;20410;55.578;12.968;2023-02-28T03:43:23;3.00;1.00
34135;DHT22;20410;55.578;12.968;2023-02-28T03:45:51;3.00;1.00
34135;DHT22;20410;55.578;12.968;2023-02-28T03:48:26;3.10;1.00
34135;DHT22;20410;55.578;12.968;2023-02-28T03:50:57;3.00;1.00
34135;DHT22;20410;55.578;12.968;2023-02-28T03:53:41;3.00;1.00
34135;DHT22;20410;55.578;12.968;2023-02-28T03:56:17;3.00;1.00
34135;DHT22;20410;55.578;12.968;2023-02-28T04:01:52;2.90;1.00
34135;DHT22;20410;55.578;12.968;2023-02-28T04:04:18;2.90;1.00
34135;DHT22;20410;55.578;12.968;2023-02-28T04:06:44;2.80;1.00
34135;DHT22;20410;55.578;12.968;2023-02-28T04:09:13;2.80;1.00
34135;DHT22;20410;55.578;12.968;2023-02-28T04:11:42;2.80;1.00
34135;DHT22;20410;55.578;12.968;2023-02-28T04:14:09;2.80;1.00
34135;DHT22;20410;55.578;12.968;2023-02-28T04:16:37;2.70;1.00
34135;DHT22;20410;55.578;12.968;2023-02-28T04:19:04;2.70;1.00
34135;DHT22;20410;55.578;12.968;2023-02-28T04:21:39;2.60;1.00
34135;DHT22;20410;55.578;12.968;2023-02-28T04:24:06;2.60;1.00
34135;DHT22;20410;55.578;12.968;2023-02-28T04:26:34;2.60;1.00
34135;DHT22;20410;55.578;12.968;2023-02-28T04:29:00;2.60;1.00
34135;DHT22;20410;55.578;12.968;2023-02-28T04:31:26;2.50;1.00
34135;DHT22;20410;55.578;12.968;2023-02-28T04:33:52;2.50;1.00
34135;DHT22;20410;55.578;12.968;2023-02-28T04:36:17;2.50;1.00
34135;DHT22;20410;55.578;12.968;2023-02-28T04:38:44;2.50;1.00
34135;DHT22;20410;55.578;12.968;2023-02-28T04:41:11;2.50;1.00
34135;DHT22;20410;55.578;12.968;2023-02-28T04:43:37;2.50;1.00
34135;DHT22;20410;55.578;12.968;2023-02-28T04:46:04;2.50;1.00
34135;DHT22;20410;55.578;12.968;2023-02-28T04:48:32;2.50;1.00
34135;DHT22;20410;55.578;12.968;2023-02-28T04:51:09;2.50;1.00
34135;DHT22;20410;55.578;12.968;2023-02-28T04:53:36;2.50;1.00
34135;DHT22;20410;55.578;12.968;2023-02-28T04:56:03;2.50;1.00
34135;DHT22;20410;55.578;12.968;2023-02-28T04:58:29;2.40;1.00
34135;DHT22;20410;55.578;12.968;2023-02-28T05:01:02;2.40;1.00
34135;DHT22;20410;55.578;12.968;2023-02-28T05:03:28;2.40;1.00
34135;DHT22;20410;55.578;12.968;2023-02-28T05:05:54;2.30;1.00
34135;DHT22;20410;55.578;12.968;2023-02-28T05:08:19;2.30;1.00
34135;DHT22;20410;55.578;12.968;2023-02-28T05:10:45;2.30;1.00
34135;DHT22;20410;55.578;12.968;2023-02-28T05:13:13;2.20;1.00
34135;DHT22;20410;55.578;12.968;2023-02-28T05:15:39;2.20;1.00
34135;DHT22;20410;55.578;12.968;2023-02-28T05:18:05;2.20;1.00
34135;DHT22;20410;55.578;12.968;2023-02-28T05:20:31;2.20;1.00
34135;DHT22;20410;55.578;12.968;2023-02-28T05:22:57;2.20;1.00
34135;DHT22;20410;55.578;12.968;2023-02-28T05:25:24;2.20;1.00
34135;DHT22;20410;55.578;12.968;2023-02-28T05:27:49;2.30;1.00
34135;DHT22;20410;55.578;12.968;2023-02-28T05:30:15;2.20;1.00
34135;DHT22;20410;55.578;12.968;2023-02-28T05:32:41;2.20;1.00
34135;DHT22;20410;55.578;12.968;2023-02-28T05:35:11;2.30;1.00
34135;DHT22;20410;55.578;12.968;2023-02-28T05:37:38;2.30;1.00
34135;DHT22;20410;55.578;12.968;2023-02-28T05:40:05;2.20;1.00
34135;DHT22;20410;55.578;12.968;2023-02-28T05:42:32;2.20;1.00
34135;DHT22;20410;55.578;12.968;2023-02-28T05:44:58;2.20;1.00
34135;DHT22;20410;55.578;12.968;2023-02-28T05:47:24;2.10;1.00
34135;DHT22;20410;55.578;12.968;2023-02-28T05:49:50;2.10;1.00
34135;DHT22;20410;55.578;12.968;2023-02-28T05:52:15;2.10;1.00
34135;DHT22;20410;55.578;12.968;2023-02-28T05:54:41;2.10;1.00
34135;DHT22;20410;55.578;12.968;2023-02-28T05:57:07;2.10;1.00
34135;DHT22;20410;55.578;12.968;2023-02-28T05:59:32;2.10;1.00
34135;DHT22;20410;55.578;12.968;2023-02-28T06:01:58;2.10;1.00
34135;DHT22;20410;55.578;12.968;2023-02-28T06:04:24;2.10;1.00
34135;DHT22;20410;55.578;12.968;2023-02-28T06:06:50;2.20;1.00
34135;DHT22;20410;55.578;12.968;2023-02-28T06:09:16;2.20;1.00
34135;DHT22;20410;55.578;12.968;2023-02-28T06:11:43;2.30;1.00
34135;DHT22;20410;55.578;12.968;2023-02-28T06:14:15;2.30;1.00
34135;DHT22;20410;55.578;12.968;2023-02-28T06:16:42;2.40;1.00
34135;DHT22;20410;55.578;12.968;2023-02-28T06:19:09;2.50;1.00
34135;DHT22;20410;55.578;12.968;2023-02-28T06:21:34;2.50;1.00
34135;DHT22;20410;55.578;12.968;2023-02-28T06:24:01;2.60;1.00
34135;DHT22;20410;55.578;12.968;2023-02-28T06:26:27;2.70;1.00
34135;DHT22;20410;55.578;12.968;2023-02-28T06:28:53;2.70;1.00
34135;DHT22;20410;55.578;12.968;2023-02-28T06:31:19;2.80;1.00
34135;DHT22;20410;55.578;12.968;2023-02-28T06:33:45;2.90;1.00
34135;DHT22;20410;55.578;12.968;2023-02-28T06:36:12;2.90;1.00
34135;DHT22;20410;55.578;12.968;2023-02-28T06:38:39;2.90;1.00
34135;DHT22;20410;55.578;12.968;2023-02-28T06:41:05;2.90;1.00
34135;DHT22;20410;55.578;12.968;2023-02-28T06:43:37;2.90;1.00
34135;DHT22;20410;55.578;12.968;2023-02-28T06:46:06;2.90;1.00
34135;DHT22;20410;55.578;12.968;2023-02-28T06:48:32;2.90;1.00
34135;DHT22;20410;55.578;12.968;2023-02-28T06:51:06;3.00;1.00
34135;DHT22;20410;55.578;12.968;2023-02-28T06:53:32;3.00;1.00
34135;DHT22;20410;55.578;12.968;2023-02-28T06:55:58;3.10;1.00
34135;DHT22;20410;55.578;12.968;2023-02-28T06:58:24;3.10;1.00
34135;DHT22;20410;55.578;12.968;2023-02-28T07:00:53;3.20;1.00
34135;DHT22;20410;55.578;12.968;2023-02-28T07:03:19;3.30;1.00
34135;DHT22;20410;55.578;12.968;2023-02-28T07:05:45;3.30;1.00
34135;DHT22;20410;55.578;12.968;2023-02-28T07:08:11;3.40;1.00
34135;DHT22;20410;55.578;12.968;2023-02-28T07:10:37;3.50;1.00
34135;DHT22;20410;55.578;12.968;2023-02-28T07:13:04;3.50;1.00
34135;DHT22;20410;55.578;12.968;2023-02-28T07:15:30;3.50;1.00
34135;DHT22;20410;55.578;12.968;2023-02-28T07:17:55;3.50;1.00
34135;DHT22;20410;55.578;12.968;2023-02-28T07:20:22;3.60;1.00
34135;DHT22;20410;55.578;12.968;2023-02-28T07:22:48;3.60;1.00
34135;DHT22;20410;55.578;12.968;2023-02-28T07:25:21;3.60;1.00
34135;DHT22;20410;55.578;12.968;2023-02-28T07:27:46;3.70;1.00
34135;DHT22;20410;55.578;12.968;2023-02-28T07:30:12;3.70;1.00
34135;DHT22;20410;55.578;12.968;2023-02-28T07:32:38;3.80;2.80
34135;DHT22;20410;55.578;12.968;2023-02-28T07:35:04;3.90;9.20
34135;DHT22;20410;55.578;12.968;2023-02-28T07:37:30;4.00;9.50
34135;DHT22;20410;55.578;12.968;2023-02-28T07:39:56;4.00;3.20
34135;DHT22;20410;55.578;12.968;2023-02-28T07:42:22;4.10;2.30
34135;DHT22;20410;55.578;12.968;2023-02-28T07:44:48;4.10;1.00
34135;DHT22;20410;55.578;12.968;2023-02-28T07:47:13;4.10;1.00
34135;DHT22;20410;55.578;12.968;2023-02-28T07:49:39;4.10;1.00
34135;DHT22;20410;55.578;12.968;2023-02-28T07:52:05;4.20;3.00
34135;DHT22;20410;55.578;12.968;2023-02-28T07:54:32;4.20;1.00
34135;DHT22;20410;55.578;12.968;2023-02-28T07:56:57;4.30;1.40
34135;DHT22;20410;55.578;12.968;2023-02-28T07:59:23;4.40;7.10
34135;DHT22;20410;55.578;12.968;2023-02-28T08:01:49;4.50;8.60
34135;DHT22;20410;55.578;12.968;2023-02-28T08:04:16;4.60;9.80
34135;DHT22;20410;55.578;12.968;2023-02-28T08:06:42;4.60;1.40
34135;DHT22;20410;55.578;12.968;2023-02-28T08:09:08;4.70;8.50
34135;DHT22;20410;55.578;12.968;2023-02-28T08:11:33;4.80;7.10
34135;DHT22;20410;55.578;12.968;2023-02-28T08:13:59;4.80;5.70
34135;DHT22;20410;55.578;12.968;2023-02-28T08:16:25;4.80;1.00
34135;DHT22;20410;55.578;12.968;2023-02-28T08:18:51;4.90;9.90
34135;DHT22;20410;55.578;12.968;2023-02-28T08:21:18;5.00;3.40
34135;DHT22;20410;55.578;12.968;2023-02-28T08:23:47;5.00;12.50
34135;DHT22;20410;55.578;12.968;2023-02-28T08:26:12;5.10;11.90
34135;DHT22;20410;55.578;12.968;2023-02-28T08:28:38;5.20;4.60
34135;DHT22;20410;55.578;12.968;2023-02-28T08:31:12;5.20;9.40
34135;DHT22;20410;55.578;12.968;2023-02-28T08:33:39;5.30;8.70
34135;DHT22;20410;55.578;12.968;2023-02-28T08:36:06;5.50;9.60
34135;DHT22;20410;55.578;12.968;2023-02-28T08:38:32;5.60;6.00
34135;DHT22;20410;55.578;12.968;2023-02-28T08:41:03;5.60;1.00
34135;DHT22;20410;55.578;12.968;2023-02-28T08:43:30;5.70;1.00
34135;DHT22;20410;55.578;12.968;2023-02-28T08:45:56;5.80;4.00
34135;DHT22;20410;55.578;12.968;2023-02-28T08:48:30;5.90;1.00
34135;DHT22;20410;55.578;12.968;2023-02-28T08:51:01;5.90;1.00
34135;DHT22;20410;55.578;12.968;2023-02-28T08:53:27;6.00;1.00
34135;DHT22;20410;55.578;12.968;2023-02-28T08:55:59;6.10;1.00
34135;DHT22;20410;55.578;12.968;2023-02-28T08:58:25;6.10;1.00
34135;DHT22;20410;55.578;12.968;2023-02-28T09:00:51;6.20;1.00
34135;DHT22;20410;55.578;12.968;2023-02-28T09:03:17;6.10;1.00
34135;DHT22;20410;55.578;12.968;2023-02-28T09:05:57;6.20;1.00
34135;DHT22;20410;55.578;12.968;2023-02-28T09:08:24;6.20;1.00
34135;DHT22;20410;55.578;12.968;2023-02-28T09:10:50;6.30;1.00
34135;DHT22;20410;55.578;12.968;2023-02-28T09:13:16;6.30;1.00
34135;DHT22;20410;55.578;12.968;2023-02-28T09:15:42;6.40;1.00
34135;DHT22;20410;55.578;12.968;2023-02-28T09:18:08;6.50;1.00
34135;DHT22;20410;55.578;12.968;2023-02-28T09:20:33;6.50;1.00
34135;DHT22;20410;55.578;12.968;2023-02-28T09:22:59;6.60;1.00
34135;DHT22;20410;55.578;12.968;2023-02-28T09:25:25;6.70;1.00
34135;DHT22;20410;55.578;12.968;2023-02-28T09:27:50;6.80;1.00
34135;DHT22;20410;55.578;12.968;2023-02-28T09:30:16;6.90;1.00
34135;DHT22;20410;55.578;12.968;2023-02-28T09:32:42;6.90;1.00
34135;DHT22;20410;55.578;12.968;2023-02-28T09:35:07;6.90;1.00
34135;DHT22;20410;55.578;12.968;2023-02-28T09:37:38;7.00;1.00
34135;DHT22;20410;55.578;12.968;2023-02-28T09:40:05;7.10;1.00
34135;DHT22;20410;55.578;12.968;2023-02-28T09:42:32;7.10;1.00
34135;DHT22;20410;55.578;12.968;2023-02-28T09:45:00;7.10;1.00
34135;DHT22;20410;55.578;12.968;2023-02-28T09:47:31;7.20;1.00
34135;DHT22;20410;55.578;12.968;2023-02-28T09:50:03;7.30;1.00
34135;DHT22;20410;55.578;12.968;2023-02-28T09:52:33;7.30;1.00
34135;DHT22;20410;55.578;12.968;2023-02-28T09:55:33;7.30;1.00
34135;DHT22;20410;55.578;12.968;2023-02-28T09:58:02;7.40;1.00
34135;DHT22;20410;55.578;12.968;2023-02-28T10:00:33;7.50;1.00
34135;DHT22;20410;55.578;12.968;2023-02-28T10:05:43;7.70;1.00
34135;DHT22;20410;55.578;12.968;2023-02-28T10:08:18;7.80;1.00
34135;DHT22;20410;55.578;12.968;2023-02-28T10:10:58;7.80;1.00
34135;DHT22;20410;55.578;12.968;2023-02-28T10:16:24;8.00;1.00
34135;DHT22;20410;55.578;12.968;2023-02-28T10:18:56;8.00;1.00
34135;DHT22;20410;55.578;12.968;2023-02-28T10:21:29;8.10;1.00
34135;DHT22;20410;55.578;12.968;2023-02-28T10:24:16;8.20;1.00
34135;DHT22;20410;55.578;12.968;2023-02-28T10:26:45;8.30;1.00
34135;DHT22;20410;55.578;12.968;2023-02-28T10:29:12;8.30;1.00
34135;DHT22;20410;55.578;12.968;2023-02-28T10:31:39;8.40;1.00
34135;DHT22;20410;55.578;12.968;2023-02-28T10:34:05;8.40;1.00
34135;DHT22;20410;55.578;12.968;2023-02-28T10:36:31;8.50;1.00
34135;DHT22;20410;55.578;12.968;2023-02-28T10:38:57;8.60;1.00
34135;DHT22;20410;55.578;12.968;2023-02-28T10:41:29;8.60;1.00
34135;DHT22;20410;55.578;12.968;2023-02-28T10:44:13;8.60;1.00
34135;DHT22;20410;55.578;12.968;2023-02-28T10:46:41;8.70;1.00
34135;DHT22;20410;55.578;12.968;2023-02-28T10:49:17;8.80;1.00
34135;DHT22;20410;55.578;12.968;2023-02-28T10:51:45;8.80;1.00
34135;DHT22;20410;55.578;12.968;2023-02-28T10:59:39;8.90;1.00
34135;DHT22;20410;55.578;12.968;2023-02-28T11:02:34;9.00;1.00
34135;DHT22;20410;55.578;12.968;2023-02-28T11:05:01;9.00;1.00
34135;DHT22;20410;55.578;12.968;2023-02-28T11:07:27;9.00;1.00
34135;DHT22;20410;55.578;12.968;2023-02-28T11:09:57;9.10;1.00
34135;DHT22;20410;55.578;12.968;2023-02-28T11:12:28;9.20;1.00
34135;DHT22;20410;55.578;12.968;2023-02-28T11:15:00;9.20;1.00
34135;DHT22;20410;55.578;12.968;2023-02-28T11:17:30;9.30;1.00
34135;DHT22;20410;55.578;12.968;2023-02-28T11:19:59;9.40;1.00
34135;DHT22;20410;55.578;12.968;2023-02-28T11:22:30;9.40;1.00
34135;DHT22;20410;55.578;12.968;2023-02-28T11:25:00;9.40;1.00
34135;DHT22;20410;55.578;12.968;2023-02-28T11:29:55;9.30;1.00
34135;DHT22;20410;55.578;12.968;2023-02-28T11:32:26;9.20;1.00
34135;DHT22;20410;55.578;12.968;2023-02-28T11:37:35;9.60;1.00
34135;DHT22;20410;55.578;12.968;2023-02-28T11:40:02;9.50;1.00
34135;DHT22;20410;55.578;12.968;2023-02-28T11:45:44;9.50;1.00
34135;DHT22;20410;55.578;12.968;2023-02-28T11:51:19;9.70;1.00
34135;DHT22;20410;55.578;12.968;2023-02-28T11:54:02;9.70;1.00
34135;DHT22;20410;55.578;12.968;2023-02-28T11:56:44;9.60;1.00
34135;DHT22;20410;55.578;12.968;2023-02-28T12:10:29;9.70;1.00
34135;DHT22;20410;55.578;12.968;2023-02-28T12:21:45;9.50;1.00
34135;DHT22;20410;55.578;12.968;2023-02-28T12:24:38;9.60;1.00
34135;DHT22;20410;55.578;12.968;2023-02-28T12:27:09;9.80;1.00
34135;DHT22;20410;55.578;12.968;2023-02-28T12:32:44;10.00;1.00
34135;DHT22;20410;55.578;12.968;2023-02-28T12:35:18;9.90;1.00
34135;DHT22;20410;55.578;12.968;2023-02-28T12:37:46;10.00;1.00
34135;DHT22;20410;55.578;12.968;2023-02-28T12:40:25;10.30;1.00
34135;DHT22;20410;55.578;12.968;2023-02-28T12:42:56;10.50;1.00
34135;DHT22;20410;55.578;12.968;2023-02-28T12:45:25;10.60;1.00
34135;DHT22;20410;55.578;12.968;2023-02-28T12:48:02;10.50;1.00
34135;DHT22;20410;55.578;12.968;2023-02-28T12:50:29;10.40;1.00
34135;DHT22;20410;55.578;12.968;2023-02-28T12:53:20;10.50;1.00
34135;DHT22;20410;55.578;12.968;2023-02-28T13:06:33;11.00;1.00
34135;DHT22;20410;55.578;12.968;2023-02-28T13:09:12;11.10;1.00
34135;DHT22;20410;55.578;12.968;2023-02-28T13:19:31;10.80;1.00
34135;DHT22;20410;55.578;12.968;2023-02-28T13:21:58;10.80;1.00
34135;DHT22;20410;55.578;12.968;2023-02-28T13:24:44;10.60;1.00
34135;DHT22;20410;55.578;12.968;2023-02-28T13:29:51;10.40;1.00
34135;DHT22;20410;55.578;12.968;2023-02-28T13:32:31;10.40;1.00
34135;DHT22;20410;55.578;12.968;2023-02-28T13:42:49;10.70;1.00
34135;DHT22;20410;55.578;12.968;2023-02-28T13:45:29;10.60;1.00
34135;DHT22;20410;55.578;12.968;2023-02-28T13:48:04;10.60;1.00
34135;DHT22;20410;55.578;12.968;2023-02-28T13:50:36;10.50;1.00
34135;DHT22;20410;55.578;12.968;2023-02-28T13:58:53;10.70;1.00
34135;DHT22;20410;55.578;12.968;2023-02-28T14:07:04;10.60;1.00
34135;DHT22;20410;55.578;12.968;2023-02-28T14:09:36;10.70;1.00
34135;DHT22;20410;55.578;12.968;2023-02-28T14:18:20;10.60;1.00
34135;DHT22;20410;55.578;12.968;2023-02-28T14:20:47;10.60;1.00
34135;DHT22;20410;55.578;12.968;2023-02-28T14:23:44;10.40;1.00
34135;DHT22;20410;55.578;12.968;2023-02-28T14:26:36;10.30;1.00
34135;DHT22;20410;55.578;12.968;2023-02-28T14:34:54;10.40;1.00
34135;DHT22;20410;55.578;12.968;2023-02-28T14:37:29;10.50;1.00
34135;DHT22;20410;55.578;12.968;2023-02-28T14:39:57;10.60;1.00
34135;DHT22;20410;55.578;12.968;2023-02-28T14:42:37;10.60;1.00
34135;DHT22;20410;55.578;12.968;2023-02-28T14:45:22;10.60;1.00
34135;DHT22;20410;55.578;12.968;2023-02-28T14:47:49;10.60;1.00
34135;DHT22;20410;55.578;12.968;2023-02-28T14:50:21;10.60;1.00
34135;DHT22;20410;55.578;12.968;2023-02-28T14:52:49;10.30;1.00
34135;DHT22;20410;55.578;12.968;2023-02-28T14:55:18;10.10;1.00
34135;DHT22;20410;55.578;12.968;2023-02-28T14:57:56;10.10;1.00
34135;DHT22;20410;55.578;12.968;2023-02-28T15:00:28;10.20;1.00
34135;DHT22;20410;55.578;12.968;2023-02-28T15:02:55;10.10;1.00
34135;DHT22;20410;55.578;12.968;2023-02-28T15:05:34;10.10;1.00
34135;DHT22;20410;55.578;12.968;2023-02-28T15:08:10;10.10;1.00
34135;DHT22;20410;55.578;12.968;2023-02-28T15:10:37;10.10;1.00
34135;DHT22;20410;55.578;12.968;2023-02-28T15:13:07;10.20;1.00
34135;DHT22;20410;55.578;12.968;2023-02-28T15:15:52;10.10;1.00
34135;DHT22;20410;55.578;12.968;2023-02-28T15:21:05;9.90;1.00
34135;DHT22;20410;55.578;12.968;2023-02-28T15:23:31;9.80;1.00
34135;DHT22;20410;55.578;12.968;2023-02-28T15:25:58;9.90;1.00
34135;DHT22;20410;55.578;12.968;2023-02-28T15:28:25;9.80;1.00
34135;DHT22;20410;55.578;12.968;2023-02-28T15:30:59;9.80;1.00
34135;DHT22;20410;55.578;12.968;2023-02-28T15:33:28;9.80;1.00
34135;DHT22;20410;55.578;12.968;2023-02-28T15:36:15;9.80;1.00
34135;DHT22;20410;55.578;12.968;2023-02-28T15:38:43;9.80;1.00
34135;DHT22;20410;55.578;12.968;2023-02-28T15:41:38;9.70;1.00
34135;DHT22;20410;55.578;12.968;2023-02-28T15:44:34;9.70;1.00
34135;DHT22;20410;55.578;12.968;2023-02-28T15:47:12;9.50;1.00
34135;DHT22;20410;55.578;12.968;2023-02-28T15:49:46;9.50;1.00
34135;DHT22;20410;55.578;12.968;2023-02-28T15:57:39;9.10;1.00
34135;DHT22;20410;55.578;12.968;2023-02-28T16:00:12;9.00;1.00
34135;DHT22;20410;55.578;12.968;2023-02-28T16:02:39;9.00;1.00
34135;DHT22;20410;55.578;12.968;2023-02-28T16:07:35;8.90;1.00
34135;DHT22;20410;55.578;12.968;2023-02-28T16:10:01;8.90;1.00
34135;DHT22;20410;55.578;12.968;2023-02-28T16:12:29;8.80;1.00
34135;DHT22;20410;55.578;12.968;2023-02-28T16:14:58;8.70;1.00
34135;DHT22;20410;55.578;12.968;2023-02-28T16:17:34;8.70;1.00
34135;DHT22;20410;55.578;12.968;2023-02-28T16:20:00;8.60;1.00
34135;DHT22;20410;55.578;12.968;2023-02-28T16:22:25;8.50;1.00
34135;DHT22;20410;55.578;12.968;2023-02-28T16:24:51;8.40;1.00
34135;DHT22;20410;55.578;12.968;2023-02-28T16:27:36;8.30;1.00
34135;DHT22;20410;55.578;12.968;2023-02-28T16:30:03;8.20;1.00
34135;DHT22;20410;55.578;12.968;2023-02-28T16:32:30;8.20;1.00
34135;DHT22;20410;55.578;12.968;2023-02-28T16:34:56;8.10;1.00
34135;DHT22;20410;55.578;12.968;2023-02-28T16:37:21;8.00;1.00
34135;DHT22;20410;55.578;12.968;2023-02-28T16:39:47;7.90;1.00
34135;DHT22;20410;55.578;12.968;2023-02-28T16:42:31;7.90;1.00
34135;DHT22;20410;55.578;12.968;2023-02-28T16:44:57;7.80;1.00
34135;DHT22;20410;55.578;12.968;2023-02-28T16:47:23;7.70;1.00
34135;DHT22;20410;55.578;12.968;2023-02-28T16:49:52;7.60;1.00
34135;DHT22;20410;55.578;12.968;2023-02-28T16:52:17;7.60;1.00
34135;DHT22;20410;55.578;12.968;2023-02-28T16:54:43;7.60;1.00
34135;DHT22;20410;55.578;12.968;2023-02-28T16:57:29;7.50;1.00
34135;DHT22;20410;55.578;12.968;2023-02-28T16:59:54;7.40;1.00
34135;DHT22;20410;55.578;12.968;2023-02-28T17:02:20;7.30;1.00
34135;DHT22;20410;55.578;12.968;2023-02-28T17:04:46;7.20;1.00
34135;DHT22;20410;55.578;12.968;2023-02-28T17:07:14;7.10;1.00
34135;DHT22;20410;55.578;12.968;2023-02-28T17:09:40;7.10;1.00
34135;DHT22;20410;55.578;12.968;2023-02-28T17:12:06;7.00;1.00
34135;DHT22;20410;55.578;12.968;2023-02-28T17:14:32;6.90;1.00
34135;DHT22;20410;55.578;12.968;2023-02-28T17:16:57;6.90;1.00
34135;DHT22;20410;55.578;12.968;2023-02-28T17:19:23;6.80;1.00
34135;DHT22;20410;55.578;12.968;2023-02-28T17:21:48;6.70;1.00
34135;DHT22;20410;55.578;12.968;2023-02-28T17:24:14;6.70;1.00
34135;DHT22;20410;55.578;12.968;2023-02-28T17:26:41;6.60;1.00
34135;DHT22;20410;55.578;12.968;2023-02-28T17:29:18;6.50;1.00
34135;DHT22;20410;55.578;12.968;2023-02-28T17:31:44;6.50;1.00
34135;DHT22;20410;55.578;12.968;2023-02-28T17:34:10;6.40;1.00
34135;DHT22;20410;55.578;12.968;2023-02-28T17:36:36;6.30;1.00
34135;DHT22;20410;55.578;12.968;2023-02-28T17:39:03;6.20;1.00
34135;DHT22;20410;55.578;12.968;2023-02-28T17:41:31;6.10;1.00
34135;DHT22;20410;55.578;12.968;2023-02-28T17:43:57;6.00;1.00
34135;DHT22;20410;55.578;12.968;2023-02-28T17:46:24;5.90;1.00
34135;DHT22;20410;55.578;12.968;2023-02-28T17:48:51;5.80;1.00
34135;DHT22;20410;55.578;12.968;2023-02-28T17:51:22;5.70;1.00
34135;DHT22;20410;55.578;12.968;2023-02-28T17:53:48;5.70;1.00
34135;DHT22;20410;55.578;12.968;2023-02-28T17:56:24;5.60;1.00
34135;DHT22;20410;55.578;12.968;2023-02-28T17:58:52;5.60;1.00
34135;DHT22;20410;55.578;12.968;2023-02-28T18:01:18;5.50;1.00
34135;DHT22;20410;55.578;12.968;2023-02-28T18:03:46;5.50;1.00
34135;DHT22;20410;55.578;12.968;2023-02-28T18:08:47;5.30;1.00
34135;DHT22;20410;55.578;12.968;2023-02-28T18:11:12;5.30;1.00
34135;DHT22;20410;55.578;12.968;2023-02-28T18:13:53;5.20;1.00
34135;DHT22;20410;55.578;12.968;2023-02-28T18:16:22;5.10;1.00
34135;DHT22;20410;55.578;12.968;2023-02-28T18:18:48;5.10;1.00
34135;DHT22;20410;55.578;12.968;2023-02-28T18:21:15;5.00;1.00
34135;DHT22;20410;55.578;12.968;2023-02-28T18:23:42;5.00;1.00
34135;DHT22;20410;55.578;12.968;2023-02-28T18:26:17;5.00;1.00
34135;DHT22;20410;55.578;12.968;2023-02-28T18:28:44;4.90;1.00
34135;DHT22;20410;55.578;12.968;2023-02-28T18:31:15;4.90;1.00
34135;DHT22;20410;55.578;12.968;2023-02-28T18:33:42;4.80;1.00
34135;DHT22;20410;55.578;12.968;2023-02-28T18:36:08;4.70;1.00